Norton, KS

12:20 AM CDT on August 01, 2014 (GMT -0500)
Hill City Municipal (KHLC) Elev 2224 ft | 39.37 °N, 99.83 °W | Change Station

Current weather conditions updated 1 hour ago

Overcast
Overcast
78 °F
Feels Like 78 °F
N
7
Wind Variable Wind from North

Today is forecast to be nearly the same temperature as yesterday.

Today
High -- | Low -- °F
--% Chance of Precip.
Yesterday
High -- | Low -- °F
Precip. -- in
6:38 AM 8:52 PM
Waxing Crescent, 23% visible
Pressure 30.01 in
Visibility 10.0 miles
Clouds Overcast 10000 ft
Dew Point 53 °F
Humidity 42%
Rainfall 0.00 in
Snow Depth Not available.
UV 0 out of 12
Pollen 7.50 out of 12
Air Quality Not available.
Flu Activity Not available.
METAR KHLC 010353Z AUTO 35006KT 10SM OVC100 26/12 A3008 RMK AO2 SLP160 T02560117

More Conditions Fewer Conditions

Pressure 30.01 in
Visibility 10.0 miles
Clouds Overcast 10000 ft
Dew Point 53 °F
Humidity 42%
Rainfall 0.00 in
Snow Depth Not available.
UV 0 out of 12
Pollen 7.50 out of 12
Air Quality Not available.
Flu Activity Not available.
METAR KHLC 010353Z AUTO 35006KT 10SM OVC100 26/12 A3008 RMK AO2 SLP160 T02560117

More Conditions Fewer Conditions

10-Day Weather Forecast

Almanac

Astronomy

Aug. 01, 2014 Rise Set
Actual Time 6:38 AM CDT 8:52 PM CDT
Civil Twilight 6:08 AM CDT 9:22 PM CDT
Nautical Twilight 5:30 AM CDT 9:59 PM CDT
Astronomical Twilight 4:50 AM CDT 10:40 PM CDT
Moon 12:03 PM CDT 11:38 PM CDT
Length of Visible Light 15h 14m
Length of Day
14h 14m
Tomorrow will be 1m 59s shorter.
Waxing Crescent, 23% of the Moon is Illuminated
Today
Waxing Crescent
Aug 3
First Quarter
Aug 10
Full
Aug 17
Last Quarter
Aug 25
New

Today's Extremes

State Highs State Lows

Community

WunderPhotos

Upload Photos

1,739,516 photos uploaded!

Nearby

Snow Depth

Station Depth Elevation
No new snow has been reported.

Earthquake Activity

City Distance Mag. Time & Date
No recent earthquake activity has been reported nearby.
Minimum magnitude displayed is 2.5.

Coastal Water Temperatures

Place Temperature
No Stations Reporting

Nearby Weather Stations

Station Location Temp. Dew Point Humidity Wind Precip. Elev Updated Type
HADS PRAIRIE DOG CREEK AT COUNTY ROAD KS, Norcatur, KS 69 °F - - North  at  - 0.00 in / hr 2350 ft 10:45 PM CDT MADIS
1 East, 2.5 South, Lenora, KS 75.0 °F - - North  at  0.0 mph 0.00 in / hr 2467 ft 12:18 AM CDT Normal
Sarrada Farms 0.1 mi W, Logan, KS 68.5 °F 57 °F 67% NNE  at  2.9 mph 0.00 in / hr 2021 ft 12:20 AM CDT Rapid Fire

Show More Stations Show Fewer Stations